Huvudsida
METAR-TAF:

METAR-TAF

Flygplatser :

Wake Island, USA

latitud: 19-17N, longitud: 166-39E, höjd: 4 m

Aktuellt väderrapport

Denna rapport gjordes för 48 minuter sedan, klockan 22:13 UTC
Vind 9 kt från ost
Temperatur 29°C
Fuktighet 66%
Tryck 1014 hPa
Sikt 10 km eller mer
Spridda moln på en höjd av 2600 ft
Brutna moln på en höjd av 4000 ft

METAR: PWAK 162213Z AUTO 08009KT 9999 SCT026 BKN040 29/22 A2993 RMK AO2 LTG DSNT S SLPNO

Tid: 11:01 (23:01 UTC)

Väderprognos

Denna rapport gjordes för 31 minuter sedan, klockan 22:30 UTC
Prognos gäller från 16 kl. 22 UTC till 18 kl. 04 UTC
Vind 15 kt från ost
Sikt 10 km eller mer
Spridda moln på en höjd av 3000 ft
Temporärt
från 17 kl. 14 UTC till 17 kl. 20 UTC
Sikt: 8000 m
Brutna moln på en höjd av 1800 ft
lätta regnskurar

TAF: PWAK 162230Z 1622/1804 08015KT 9999 SCT030 QNH2982INS TEMPO 1714/1720 8000 -SHRA BKN018 TX30/1702Z TN25/1717Z

Aktuella väderrapporter och prognoser från 4000 flygplatser (METAR- och TAF-rapporter).

De tillgängliga stationerna syns som gula och röda prickar på kartan.

För musen över prickarna för att se namnen på stationerna.

Klicka sedan för att få väderrapporter och prognoser.

För att ändra kartan: Klicka på de gröna knapparna med ett svart kors på för att zooma in; den gröna knappen med ett streck på för att zooma ut; eller på de gröna pilarna för angränsande kartor.


METAR-TAF: